Time;durP1;ratioP1;P1;durP2;ratioP2;P2;SDS_P1;SDS_P2;PMS_P1;PMS_P2;Temp;Humidity;BMP_temperature;BMP_pressure;BME280_temperature;BME280_humidity;BME280_pressure;Samples;Min_cycle;Max_cycle;Signal;HPM_P1;HPM_P2
2021/03/29 00:00:37;;;;;;;10.40;5.22;;;;;;;10.86;49.35;101385.88;5050097;28;20067;-22
2021/03/29 00:03:03;;;;;;;8.88;4.47;;;;;;;10.75;49.19;101397.03;5032212;28;20144;-23
2021/03/29 00:05:30;;;;;;;7.43;4.20;;;;;;;10.72;49.05;101365.38;5032097;28;20028;-23
2021/03/29 00:08:02;;;;;;;9.30;4.68;;;;;;;10.85;48.77;101376.22;5049561;28;20033;-22
2021/03/29 00:10:28;;;;;;;9.27;4.78;;;;;;;10.85;48.63;101386.91;5015798;28;20194;-23
2021/03/29 00:12:54;;;;;;;8.25;4.70;;;;;;;10.90;48.36;101388.16;5015403;28;20492;-21
2021/03/29 00:15:22;;;;;;;7.68;4.80;;;;;;;10.77;49.00;101376.34;5015912;28;20077;-23
2021/03/29 00:17:48;;;;;;;8.30;4.47;;;;;;;10.74;48.99;101384.69;5015410;28;20029;-22
2021/03/29 00:20:21;;;;;;;7.47;4.30;;;;;;;10.75;48.08;101364.22;5031766;28;20114;-23
2021/03/29 00:22:47;;;;;;;9.18;4.78;;;;;;;10.78;48.20;101383.31;5031922;28;20029;-22
2021/03/29 00:25:14;;;;;;;7.72;4.68;;;;;;;10.70;48.22;101378.09;5031820;28;20029;-22
2021/03/29 00:27:40;;;;;;;7.78;4.50;;;;;;;10.82;47.69;101381.09;5031081;28;20024;-23
2021/03/29 00:30:11;;;;;;;8.57;4.78;;;;;;;10.90;48.21;101380.16;5031827;28;20091;-22
2021/03/29 00:32:37;;;;;;;8.00;4.72;;;;;;;10.85;47.97;101364.72;5049375;28;20060;-23
2021/03/29 00:35:03;;;;;;;8.38;4.75;;;;;;;10.95;48.34;101388.41;5031539;28;20108;-23
2021/03/29 00:37:29;;;;;;;10.65;4.88;;;;;;;10.89;48.32;101389.16;5049091;28;20052;-23
2021/03/29 00:39:54;;;;;;;8.48;4.68;;;;;;;11.13;48.04;101385.31;5049133;28;20469;-23
2021/03/29 00:42:20;;;;;;;9.75;5.45;;;;;;;10.90;48.81;101399.66;5014941;28;20481;-22
2021/03/29 00:44:45;;;;;;;7.03;4.75;;;;;;;10.84;49.36;101393.22;5031484;28;20815;-22
2021/03/29 00:47:11;;;;;;;7.95;4.82;;;;;;;10.98;48.69;101404.06;5048872;28;20431;-22
2021/03/29 00:49:36;;;;;;;11.40;4.93;;;;;;;10.84;49.25;101401.25;5014815;28;20394;-23
2021/03/29 00:52:02;;;;;;;9.75;5.53;;;;;;;10.90;48.81;101404.19;5031127;28;20029;-23
2021/03/29 00:54:28;;;;;;;10.00;5.60;;;;;;;10.55;49.14;101383.47;5031153;28;20492;-23
2021/03/29 00:56:54;;;;;;;10.30;5.32;;;;;;;10.59;49.79;101386.59;5014913;28;20558;-23
2021/03/29 00:59:19;;;;;;;9.23;4.95;;;;;;;10.41;49.97;101403.78;5014862;28;20037;-23
2021/03/29 01:01:49;;;;;;;10.88;5.65;;;;;;;10.37;49.66;101389.16;5014191;28;20039;-23
2021/03/29 01:04:15;;;;;;;10.15;5.22;;;;;;;10.35;49.65;101388.53;5048608;28;20033;-23
2021/03/29 01:06:42;;;;;;;8.80;5.13;;;;;;;10.40;50.11;101396.81;5014327;28;20481;-22
2021/03/29 01:09:08;;;;;;;9.80;5.47;;;;;;;10.41;50.73;101409.13;5030788;28;20033;-23
2021/03/29 01:11:37;;;;;;;8.32;5.50;;;;;;;10.28;50.44;101414.25;5030368;28;20100;-23
2021/03/29 01:14:13;;;;;;;9.27;5.22;;;;;;;10.26;50.30;101400.28;5014805;28;20186;-23
2021/03/29 01:16:47;;;;;;;9.15;5.32;;;;;;;10.23;50.51;101411.31;5015163;28;20033;-22
2021/03/29 01:19:38;;;;;;;8.80;5.43;;;;;;;10.22;50.82;101412.31;5014422;28;20119;-23
2021/03/29 01:22:05;;;;;;;10.77;5.43;;;;;;;10.05;51.05;101391.19;4984078;28;20041;-23
2021/03/29 01:24:39;;;;;;;9.30;5.38;;;;;;;10.26;50.80;101424.28;5014115;28;20033;-23
2021/03/29 01:27:05;;;;;;;9.32;5.65;;;;;;;10.19;50.69;101412.69;5031199;28;20083;-22
2021/03/29 01:29:31;;;;;;;9.68;5.50;;;;;;;10.24;50.35;101411.13;5014183;28;20036;-23
2021/03/29 01:32:01;;;;;;;9.20;5.40;;;;;;;10.06;50.29;101413.31;5013449;28;20056;-23
2021/03/29 01:34:27;;;;;;;8.85;5.55;;;;;;;10.11;50.90;101420.75;5014204;28;20508;-21
2021/03/29 01:36:52;;;;;;;10.57;5.63;;;;;;;10.17;50.67;101426.19;5030305;28;20026;-23
2021/03/29 01:39:18;;;;;;;12.68;5.72;;;;;;;10.42;49.60;101423.28;5030400;28;20033;-23
2021/03/29 01:41:43;;;;;;;9.57;5.72;;;;;;;10.43;49.68;101420.44;5030133;28;20089;-23
2021/03/29 01:44:09;;;;;;;12.70;5.97;;;;;;;10.59;49.57;101418.59;5030179;28;20037;-23
2021/03/29 01:46:34;;;;;;;9.63;6.10;;;;;;;10.36;49.65;101408.88;5029779;28;20092;-22
2021/03/29 01:49:00;;;;;;;11.10;5.55;;;;;;;10.19;49.99;101428.66;5029806;28;20061;-23
2021/03/29 01:51:26;;;;;;;9.38;5.70;;;;;;;9.90;50.57;101387.66;5029791;28;20176;-22
2021/03/29 01:53:51;;;;;;;9.05;5.40;;;;;;;10.00;50.62;101417.53;5029772;28;20121;-23
2021/03/29 01:56:17;;;;;;;9.95;5.90;;;;;;;10.06;50.11;101422.13;5013394;28;20025;-23
2021/03/29 01:58:42;;;;;;;8.48;4.93;;;;;;;9.96;50.15;101424.22;5029860;28;20036;-23
2021/03/29 02:01:09;;;;;;;8.38;4.97;;;;;;;9.82;49.55;101409.03;5047632;28;20053;-23
2021/03/29 02:03:35;;;;;;;8.38;4.88;;;;;;;10.20;49.20;101409.00;5047249;28;20095;-23
2021/03/29 02:06:01;;;;;;;9.23;5.45;;;;;;;10.14;49.32;101415.06;5013240;28;20025;-23
2021/03/29 02:08:26;;;;;;;10.73;5.05;;;;;;;10.04;49.18;101416.16;5030017;28;20098;-22
2021/03/29 02:10:52;;;;;;;10.00;5.00;;;;;;;9.70;49.61;101387.34;5013394;28;20028;-23
2021/03/29 02:13:20;;;;;;;7.93;5.10;;;;;;;9.71;49.70;101401.50;5029769;28;20033;-22
2021/03/29 02:15:46;;;;;;;8.38;4.72;;;;;;;9.84;49.96;101407.84;5029456;28;20025;-23
2021/03/29 02:18:16;;;;;;;9.23;5.07;;;;;;;9.88;49.74;101407.50;5013173;28;20028;-22
2021/03/29 02:20:42;;;;;;;9.75;4.60;;;;;;;9.64;49.58;101386.25;5047490;28;20032;-21
2021/03/29 02:23:07;;;;;;;10.13;4.82;;;;;;;9.79;49.37;101401.44;5047818;28;20088;-23
2021/03/29 02:25:33;;;;;;;7.90;4.45;;;;;;;9.84;49.35;101415.03;5012924;28;20047;-23
2021/03/29 02:28:00;;;;;;;7.88;4.85;;;;;;;9.77;49.30;101398.13;5029458;28;20032;-22
2021/03/29 02:30:31;;;;;;;11.55;5.25;;;;;;;9.69;49.66;101395.53;5029908;28;20029;-23
2021/03/29 02:32:57;;;;;;;12.00;6.00;;;;;;;9.94;49.53;101409.44;5047313;28;20044;-22
2021/03/29 02:35:23;;;;;;;7.85;4.05;;;;;;;9.83;49.50;101414.19;5029681;28;20017;-23
2021/03/29 02:37:51;;;;;;;8.40;4.75;;;;;;;9.72;49.56;101411.97;5029397;28;20136;-23
2021/03/29 02:40:17;;;;;;;7.63;4.55;;;;;;;9.88;50.01;101405.66;5013318;28;20147;-23
2021/03/29 02:42:43;;;;;;;9.05;4.63;;;;;;;9.97;49.17;101420.56;5013058;28;20035;-23
2021/03/29 02:45:09;;;;;;;7.15;4.40;;;;;;;9.93;48.96;101429.94;5012732;28;20029;-21
2021/03/29 02:47:36;;;;;;;10.18;4.43;;;;;;;9.95;47.99;101427.91;5028917;28;20041;-22
2021/03/29 02:50:04;;;;;;;7.32;4.07;;;;;;;9.91;48.20;101426.63;5029571;28;20029;-24
2021/03/29 02:52:29;;;;;;;6.95;3.95;;;;;;;9.95;47.79;101425.25;5046910;28;20029;-22
2021/03/29 02:54:55;;;;;;;7.57;4.28;;;;;;;9.89;47.93;101428.66;5029307;28;20067;-23
2021/03/29 02:57:22;;;;;;;9.55;4.93;;;;;;;9.85;47.25;101428.16;5012616;28;20033;-23
2021/03/29 02:59:47;;;;;;;7.78;4.43;;;;;;;9.88;47.55;101426.97;5012541;28;20033;-23
2021/03/29 03:02:13;;;;;;;11.07;6.00;;;;;;;9.92;48.36;101428.28;5028956;28;20033;-23
2021/03/29 03:04:39;;;;;;;9.23;4.80;;;;;;;9.75;48.70;101410.78;5028964;28;20412;-23
2021/03/29 03:07:04;;;;;;;8.40;4.72;;;;;;;10.02;48.37;101434.16;5012468;28;20550;-23
2021/03/29 03:09:30;;;;;;;8.52;4.68;;;;;;;10.01;47.93;101435.19;5012792;28;20115;-23
2021/03/29 03:11:55;;;;;;;10.77;4.82;;;;;;;10.04;47.66;101436.66;5028808;28;20041;-23
2021/03/29 03:14:21;;;;;;;9.35;5.63;;;;;;;9.86;49.07;101439.66;5012573;28;20124;-23
2021/03/29 03:16:46;;;;;;;9.93;4.88;;;;;;;10.06;48.50;101434.63;5012558;28;20106;-22
2021/03/29 03:19:12;;;;;;;8.88;5.40;;;;;;;10.39;48.04;101435.16;5046848;28;20174;-23
2021/03/29 03:21:38;;;;;;;10.68;5.25;;;;;;;10.05;48.99;101439.16;5012183;28;20104;-23
2021/03/29 03:24:04;;;;;;;8.85;4.85;;;;;;;10.05;49.09;101444.47;5012339;28;20171;-22
2021/03/29 03:26:30;;;;;;;10.07;5.00;;;;;;;10.13;48.62;101445.41;5046618;28;20488;-22
2021/03/29 03:28:55;;;;;;;10.38;5.68;;;;;;;10.22;49.10;101449.66;5046856;28;20036;-23
2021/03/29 03:31:21;;;;;;;103.57;47.33;;;;;;;10.06;49.96;101430.13;5046760;28;20060;-23
2021/03/29 03:33:47;;;;;;;16.13;7.55;;;;;;;9.68;50.50;101449.81;5028879;28;20025;-22
2021/03/29 03:36:13;;;;;;;9.60;5.97;;;;;;;9.23;50.46;101450.47;5046496;28;20021;-23
2021/03/29 03:38:40;;;;;;;11.35;5.75;;;;;;;9.21;50.49;101449.81;5046511;28;20142;-23
2021/03/29 03:41:15;;;;;;;8.15;4.75;;;;;;;9.32;50.73;101464.53;5012660;28;20036;-24
2021/03/29 03:43:43;;;;;;;9.73;5.10;;;;;;;9.57;50.53;101462.53;5028642;28;20029;-23
2021/03/29 03:46:11;;;;;;;15.65;5.93;;;;;;;9.92;49.65;101470.09;5028723;28;20382;-23
2021/03/29 03:48:37;;;;;;;10.93;5.57;;;;;;;9.59;50.86;101471.16;5046342;28;20053;-23
2021/03/29 03:51:03;;;;;;;9.20;5.07;;;;;;;9.38;51.83;101463.84;5028491;28;20040;-23
2021/03/29 03:53:29;;;;;;;8.80;4.78;;;;;;;9.17;52.12;101482.25;5047088;28;20545;-23
2021/03/29 03:55:56;;;;;;;10.75;5.10;;;;;;;8.72;53.25;101475.81;5031959;28;20508;-22
2021/03/29 03:58:23;;;;;;;7.72;4.80;;;;;;;8.43;53.06;101432.84;5049294;28;20079;-23
2021/03/29 04:00:48;;;;;;;6.70;3.88;;;;;;;8.48;51.85;101458.09;5049858;28;20083;-22
2021/03/29 04:03:14;;;;;;;8.73;3.88;;;;;;;8.61;52.17;101482.34;5015478;28;20472;-22
2021/03/29 04:05:40;;;;;;;8.38;4.72;;;;;;;8.37;53.31;101457.44;5048652;28;20025;-23
2021/03/29 04:08:06;;;;;;;16.70;8.63;;;;;;;8.24;52.64;101473.09;5049812;28;20060;-22
2021/03/29 04:10:53;;;;;;;23.35;11.02;;;;;;;8.27;52.79;101474.56;5049770;28;20764;-22
2021/03/29 04:15:57;;;;;;;11.43;5.35;;;;;;;8.25;52.73;101482.72;5049464;28;20029;-22
2021/03/29 04:18:22;;;;;;;12.95;4.85;;;;;;;8.25;51.84;101462.31;5049613;28;20021;-23
2021/03/29 04:20:48;;;;;;;10.45;4.50;;;;;;;8.35;51.96;101483.34;5049516;28;20051;-23
2021/03/29 04:23:14;;;;;;;7.75;3.97;;;;;;;8.27;52.02;101482.53;5049351;28;20037;-23
2021/03/29 04:25:40;;;;;;;7.82;4.05;;;;;;;8.33;51.29;101479.22;5049147;28;20029;-22
2021/03/29 04:28:06;;;;;;;9.13;4.40;;;;;;;8.30;51.64;101491.03;5049468;28;20052;-22
2021/03/29 04:30:31;;;;;;;7.18;3.90;;;;;;;8.18;51.96;101471.09;5049683;28;20029;-23
2021/03/29 04:32:57;;;;;;;7.50;3.63;;;;;;;8.38;50.29;101495.50;5049505;28;20032;-22
2021/03/29 04:35:23;;;;;;;7.13;3.95;;;;;;;8.23;50.98;101474.06;5049479;28;20029;-22
2021/03/29 04:37:52;;;;;;;7.95;3.80;;;;;;;8.41;50.56;101493.34;5049352;28;20859;-23
2021/03/29 04:40:19;;;;;;;7.18;3.75;;;;;;;8.49;49.98;101494.34;5031688;28;20108;-22
2021/03/29 04:42:45;;;;;;;8.05;3.90;;;;;;;8.42;50.25;101488.88;5049115;28;20059;-22
2021/03/29 04:45:11;;;;;;;8.52;3.95;;;;;;;8.65;50.32;101483.66;5049124;28;20106;-23
2021/03/29 04:47:36;;;;;;;7.38;3.70;;;;;;;8.59;49.81;101479.03;5048725;28;20029;-23
2021/03/29 04:50:03;;;;;;;6.53;3.80;;;;;;;8.43;50.56;101470.06;5049237;28;20025;-23
2021/03/29 04:52:29;;;;;;;6.63;3.55;;;;;;;8.88;50.32;101509.50;5049062;28;20405;-23
2021/03/29 04:54:54;;;;;;;7.57;4.07;;;;;;;9.08;50.15;101516.06;5049041;28;20040;-23
2021/03/29 04:57:20;;;;;;;8.85;3.80;;;;;;;9.14;49.19;101507.38;5049164;28;20040;-23
2021/03/29 04:59:45;;;;;;;9.65;3.53;;;;;;;9.17;48.97;101509.69;5048569;28;20129;-23
2021/03/29 05:02:11;;;;;;;7.32;3.70;;;;;;;9.20;49.58;101514.69;5048885;28;20037;-23
2021/03/29 05:04:37;;;;;;;7.82;3.85;;;;;;;9.40;48.88;101508.94;5048527;28;20451;-22
2021/03/29 05:07:12;;;;;;;7.57;3.75;;;;;;;9.28;48.69;101495.19;5048791;28;20048;-23
2021/03/29 05:09:37;;;;;;;8.57;3.95;;;;;;;9.58;48.21;101517.47;5048518;28;20028;-23
2021/03/29 05:12:16;;;;;;;9.32;4.22;;;;;;;9.81;48.67;101527.31;5048424;28;20070;-23
2021/03/29 05:14:42;;;;;;;9.52;4.68;;;;;;;9.92;48.31;101505.56;5032168;28;20032;-23
2021/03/29 05:17:08;;;;;;;10.27;6.15;;;;;;;10.12;47.83;101534.38;5048408;28;20033;-23
2021/03/29 05:19:34;;;;;;;17.13;10.35;;;;;;;10.30;46.95;101518.91;5048108;28;20060;-23
2021/03/29 05:22:00;;;;;;;18.60;9.57;;;;;;;10.39;48.04;101535.66;5048474;28;20064;-22
2021/03/29 05:24:25;;;;;;;18.67;10.73;;;;;;;10.17;48.65;101540.00;5031142;28;20044;-23
2021/03/29 05:26:51;;;;;;;13.75;8.90;;;;;;;9.97;48.86;101527.19;5048556;28;20067;-22
2021/03/29 05:29:17;;;;;;;15.50;7.70;;;;;;;10.26;48.60;101528.25;5048487;28;20405;-22
2021/03/29 05:31:42;;;;;;;16.58;7.63;;;;;;;10.34;47.40;101528.22;5048431;28;20370;-23
2021/03/29 05:34:13;;;;;;;15.52;7.97;;;;;;;10.23;47.51;101518.75;5047967;28;20510;-23
2021/03/29 05:36:38;;;;;;;10.77;5.72;;;;;;;10.41;47.03;101513.13;5048159;28;20040;-21
2021/03/29 05:39:05;;;;;;;9.40;4.35;;;;;;;10.45;47.32;101513.59;5048379;28;20032;-23
2021/03/29 05:41:30;;;;;;;9.55;4.75;;;;;;;10.67;47.57;101530.56;5048140;28;20035;-22
2021/03/29 05:43:56;;;;;;;11.02;5.57;;;;;;;10.69;47.43;101539.19;5047975;28;20443;-22
2021/03/29 05:46:22;;;;;;;11.38;5.35;;;;;;;10.53;48.59;101536.69;5047561;28;20493;-23
2021/03/29 05:48:47;;;;;;;8.65;4.57;;;;;;;10.57;47.94;101532.66;5048084;28;20100;-23
2021/03/29 05:51:13;;;;;;;10.35;4.55;;;;;;;10.84;47.40;101534.66;5047961;28;20404;-23
2021/03/29 05:53:39;;;;;;;9.73;4.35;;;;;;;11.01;46.81;101545.16;5029892;28;20440;-23
2021/03/29 05:56:05;;;;;;;9.20;4.70;;;;;;;11.19;45.63;101540.25;5047628;28;20071;-24
2021/03/29 05:58:44;;;;;;;8.52;4.53;;;;;;;11.27;45.78;101544.66;5047588;28;20047;-23
2021/03/29 06:01:09;;;;;;;8.82;4.82;;;;;;;11.23;45.66;101560.22;5047829;28;20029;-23
2021/03/29 06:03:40;;;;;;;9.95;4.32;;;;;;;11.50;46.09;101549.84;5047616;28;20056;-22
2021/03/29 06:06:14;;;;;;;7.43;3.85;;;;;;;11.57;46.19;101569.47;5047545;28;20389;-21
2021/03/29 06:08:50;;;;;;;12.35;5.00;;;;;;;11.24;46.98;101551.22;5047505;28;20473;-23
2021/03/29 06:11:51;;;;;;;7.57;3.53;;;;;;;10.98;48.33;101558.88;5030306;28;20867;-22
2021/03/29 06:14:19;;;;;;;7.30;3.90;;;;;;;10.78;48.64;101535.41;5029915;28;20049;-23
2021/03/29 06:17:04;;;;;;;8.40;3.78;;;;;;;10.57;49.10;101533.47;5047059;28;20029;-22
2021/03/29 06:19:49;;;;;;;11.40;4.20;;;;;;;10.96;49.59;101563.59;5047557;28;20050;-23
2021/03/29 06:22:18;;;;;;;7.68;4.38;;;;;;;11.52;47.01;101558.50;5047439;28;20021;-23
2021/03/29 06:24:51;;;;;;;8.50;4.53;;;;;;;11.81;46.33;101576.31;5047289;28;20450;-23
2021/03/29 06:27:17;;;;;;;9.13;4.20;;;;;;;12.18;45.71;101560.25;5047228;28;20085;-22
2021/03/29 06:29:42;;;;;;;13.15;4.90;;;;;;;12.29;44.92;101543.66;5047090;28;20033;-23
2021/03/29 06:32:08;;;;;;;7.45;4.32;;;;;;;12.21;44.79;101559.84;5047227;28;20064;-23
2021/03/29 06:34:34;;;;;;;9.82;3.92;;;;;;;12.00;44.57;101572.22;5047235;28;20033;-23
2021/03/29 06:37:06;;;;;;;7.85;3.58;;;;;;;11.89;44.85;101559.38;5047141;28;20021;-23
2021/03/29 06:39:35;;;;;;;8.18;3.83;;;;;;;11.70;44.13;101550.06;5046868;28;20052;-23
2021/03/29 06:42:01;;;;;;;8.18;4.05;;;;;;;11.98;44.02;101549.38;5047187;28;20033;-23
2021/03/29 06:44:35;;;;;;;10.43;3.92;;;;;;;12.11;43.43;101562.03;5047226;28;20111;-23
2021/03/29 06:47:19;;;;;;;8.50;3.83;;;;;;;12.39;42.31;101564.72;5047040;28;20060;-22
2021/03/29 06:49:48;;;;;;;8.00;3.83;;;;;;;12.42;44.10;101569.69;5046699;28;20049;-23
2021/03/29 06:52:24;;;;;;;17.67;4.35;;;;;;;12.57;42.61;101570.41;5047113;28;20028;-22
2021/03/29 06:54:50;;;;;;;7.03;3.60;;;;;;;12.90;40.56;101571.66;5047165;28;20033;-23
2021/03/29 06:57:29;;;;;;;8.65;3.80;;;;;;;13.12;40.43;101549.13;5046706;28;20034;-23
2021/03/29 06:59:55;;;;;;;6.72;3.58;;;;;;;13.48;39.94;101556.06;5047045;28;20032;-22
2021/03/29 07:02:40;;;;;;;8.55;3.80;;;;;;;13.80;38.55;101567.91;5047091;28;20056;-23
2021/03/29 07:05:06;;;;;;;5.97;3.00;;;;;;;13.43;36.82;101566.56;5046845;28;20489;-23
2021/03/29 07:07:32;;;;;;;5.68;3.20;;;;;;;13.39;38.25;101559.97;5046480;28;20033;-23
2021/03/29 07:09:59;;;;;;;6.63;2.63;;;;;;;13.49;36.16;101568.44;5047098;28;20035;-23
2021/03/29 07:12:27;;;;;;;6.75;3.00;;;;;;;13.61;37.35;101558.78;5046751;28;20060;-23
2021/03/29 07:14:53;;;;;;;5.75;2.42;;;;;;;13.63;34.98;101555.91;5029104;28;20577;-23
2021/03/29 07:17:18;;;;;;;7.18;3.22;;;;;;;13.90;35.13;101567.53;5046545;28;20048;-22
2021/03/29 07:19:44;;;;;;;6.97;2.28;;;;;;;13.58;34.62;101564.53;5028529;28;20032;-23
2021/03/29 07:22:10;;;;;;;7.60;2.45;;;;;;;13.78;35.16;101575.31;5029323;28;20036;-23
2021/03/29 07:24:35;;;;;;;4.45;1.98;;;;;;;13.82;33.59;101575.75;5012627;28;20029;-23
2021/03/29 07:27:01;;;;;;;5.03;2.40;;;;;;;14.10;31.73;101566.69;5028818;28;20096;-23
2021/03/29 07:29:29;;;;;;;6.07;2.20;;;;;;;13.98;34.40;101575.38;5030992;28;20054;-23
2021/03/29 07:31:56;;;;;;;5.75;2.53;;;;;;;14.05;32.35;101570.81;5050087;28;20025;-23
2021/03/29 07:34:49;;;;;;;7.00;2.78;;;;;;;13.83;32.34;101572.88;5050370;28;20041;-23
2021/03/29 07:37:34;;;;;;;6.03;2.55;;;;;;;14.37;33.45;101576.41;5050559;28;20476;-23
2021/03/29 07:40:02;;;;;;;5.78;2.33;;;;;;;14.68;31.33;101556.19;5050171;28;20124;-22
2021/03/29 07:42:29;;;;;;;;;;;;;;;14.97;30.20;101562.91;5050817;28;20112;-22
2021/03/29 07:45:05;;;;;;;4.57;2.30;;;;;;;15.15;31.72;101559.56;5050152;28;20451;-22
2021/03/29 07:47:48;;;;;;;10.35;2.35;;;;;;;15.03;32.56;101562.06;5050486;28;20795;-23
2021/03/29 07:50:23;;;;;;;5.95;2.70;;;;;;;14.69;32.68;101549.78;5050420;28;20504;-23
2021/03/29 07:52:59;;;;;;;5.03;2.40;;;;;;;14.98;32.71;101558.38;5032507;28;20786;-22
2021/03/29 07:55:26;;;;;;;7.55;2.90;;;;;;;15.04;30.63;101552.16;5050358;28;20468;-23
2021/03/29 07:57:53;;;;;;;7.30;2.60;;;;;;;14.86;30.71;101564.41;5049894;28;20037;-23
2021/03/29 08:00:24;;;;;;;6.00;2.90;;;;;;;14.57;31.82;101573.75;5050046;28;20040;-22
2021/03/29 08:02:50;;;;;;;6.93;2.67;;;;;;;14.86;30.87;101544.78;5049832;28;20495;-23
2021/03/29 08:05:34;;;;;;;10.57;2.92;;;;;;;14.94;33.48;101543.72;5031938;28;20120;-23
2021/03/29 08:08:02;;;;;;;6.72;2.67;;;;;;;15.47;31.10;101565.81;5049824;28;20036;-23
2021/03/29 08:10:56;;;;;;;7.35;2.80;;;;;;;15.88;30.34;101562.94;5050027;28;20036;-23
2021/03/29 08:13:44;;;;;;;7.28;2.67;;;;;;;15.65;30.79;101546.28;5049684;28;20036;-23
2021/03/29 08:16:10;;;;;;;5.85;2.85;;;;;;;15.55;32.31;101562.06;5049866;28;20121;-23
2021/03/29 08:19:10;;;;;;;7.35;2.55;;;;;;;15.65;32.80;101559.75;5049570;28;20036;-23
2021/03/29 08:21:47;;;;;;;5.93;2.80;;;;;;;16.11;30.04;101551.59;5049507;28;20040;-23
2021/03/29 08:24:30;;;;;;;4.45;2.70;;;;;;;16.11;28.98;101535.44;5049583;28;20033;-23
2021/03/29 08:26:56;;;;;;;8.05;3.22;;;;;;;16.45;28.68;101550.25;5033041;28;20068;-23
2021/03/29 08:29:35;;;;;;;7.10;2.55;;;;;;;16.19;29.51;101545.94;5049499;28;20064;-23
2021/03/29 08:32:11;;;;;;;6.72;2.85;;;;;;;16.01;28.48;101536.75;5049716;28;20036;-22
2021/03/29 08:34:44;;;;;;;5.28;2.53;;;;;;;16.01;29.30;101531.38;5049334;28;20029;-23
2021/03/29 08:37:11;;;;;;;7.88;2.70;;;;;;;16.20;30.04;101534.09;5049210;28;20614;-23
2021/03/29 08:39:39;;;;;;;5.43;2.70;;;;;;;15.78;32.08;101536.53;5048828;28;20041;-23
2021/03/29 08:42:05;;;;;;;5.97;2.60;;;;;;;16.43;31.69;101528.13;5049232;28;20130;-22
2021/03/29 08:44:30;;;;;;;7.80;3.20;;;;;;;16.79;30.33;101538.09;5049064;28;20036;-23
2021/03/29 08:46:56;;;;;;;7.65;2.72;;;;;;;17.23;28.49;101517.28;5031068;28;20048;-23
2021/03/29 08:49:23;;;;;;;6.22;2.47;;;;;;;17.21;28.26;101535.56;5048796;28;20428;-23
2021/03/29 08:51:51;;;;;;;8.48;2.70;;;;;;;17.42;27.79;101533.41;5048756;28;20040;-22
2021/03/29 08:54:17;;;;;;;6.50;3.08;;;;;;;17.09;26.86;101526.59;5049176;28;20028;-23
2021/03/29 08:56:44;;;;;;;6.00;2.72;;;;;;;16.77;30.33;101529.41;5048905;28;20028;-23
2021/03/29 08:59:10;;;;;;;6.05;2.80;;;;;;;16.56;28.66;101533.38;5048959;28;20498;-22
2021/03/29 09:01:36;;;;;;;5.50;3.00;;;;;;;16.70;29.98;101514.38;5048529;28;20033;-22
2021/03/29 09:04:02;;;;;;;6.80;3.05;;;;;;;17.02;29.52;101517.75;5048912;28;20036;-23
2021/03/29 09:06:28;;;;;;;5.90;2.75;;;;;;;16.84;30.27;101497.88;5048505;28;20057;-22
2021/03/29 09:08:54;;;;;;;11.95;3.50;;;;;;;16.90;29.45;101511.47;5031123;28;20062;-23
2021/03/29 09:11:19;;;;;;;6.18;2.70;;;;;;;16.90;28.28;101506.09;5014448;28;20040;-23
2021/03/29 09:13:45;;;;;;;6.80;2.75;;;;;;;17.15;29.19;101514.91;5048389;28;20484;-22
2021/03/29 09:16:11;;;;;;;4.63;2.55;;;;;;;17.41;29.02;101507.53;5013949;28;20037;-22
2021/03/29 09:18:36;;;;;;;6.90;2.55;;;;;;;17.22;31.00;101491.38;5030634;28;20051;-22
2021/03/29 09:21:02;;;;;;;4.40;2.00;;;;;;;17.75;27.65;101507.84;5048549;28;20041;-21
2021/03/29 09:23:33;;;;;;;5.35;2.40;;;;;;;18.09;27.43;101506.28;5048621;28;20057;-22
2021/03/29 09:26:03;;;;;;;6.32;2.20;;;;;;;17.36;28.97;101488.50;5048572;28;20104;-22
2021/03/29 09:31:01;;;;;;;5.38;2.10;;;;;;;16.68;28.37;101498.44;5048511;28;20041;-22
2021/03/29 09:33:26;;;;;;;5.93;2.33;;;;;;;16.91;28.37;101500.47;5048341;28;20650;-22
2021/03/29 09:35:52;;;;;;;3.97;1.98;;;;;;;17.10;28.77;101468.94;5030080;28;20119;-22
2021/03/29 09:38:35;;;;;;;9.38;2.40;;;;;;;17.76;29.63;101474.41;5048056;28;20048;-23
2021/03/29 09:41:19;;;;;;;5.57;2.47;;;;;;;17.71;27.31;101490.47;5048202;28;20033;-22
2021/03/29 09:43:45;;;;;;;6.10;2.30;;;;;;;17.78;27.73;101469.59;5047960;28;20412;-21
2021/03/29 09:46:11;;;;;;;4.53;2.20;;;;;;;17.74;27.99;101484.63;5048120;28;20037;-21
2021/03/29 09:48:36;;;;;;;4.22;2.50;;;;;;;18.26;28.09;101468.59;5048033;28;20064;-22
2021/03/29 09:51:02;;;;;;;4.45;2.05;;;;;;;18.80;25.83;101457.63;5047285;28;20052;-22
2021/03/29 09:53:33;;;;;;;6.03;2.28;;;;;;;18.47;25.51;101456.38;5047562;28;20064;-22
2021/03/29 09:56:00;;;;;;;4.43;2.05;;;;;;;18.87;26.14;101461.81;5048128;28;20144;-22
2021/03/29 09:58:39;;;;;;;6.90;2.50;;;;;;;18.99;27.09;101447.44;5047932;28;20040;-27
2021/03/29 10:01:15;;;;;;;5.85;2.33;;;;;;;18.18;26.05;101452.75;5030008;28;20492;-22
2021/03/29 10:04:09;;;;;;;5.72;2.40;;;;;;;18.91;24.80;101451.34;5047688;28;20079;-21
2021/03/29 10:06:35;;;;;;;6.45;2.72;;;;;;;19.40;25.54;101464.41;5047150;28;20067;-22
2021/03/29 10:09:06;;;;;;;4.00;2.67;;;;;;;18.70;26.85;101444.69;5047422;28;20029;-21
2021/03/29 10:11:48;;;;;;;4.63;2.63;;;;;;;18.62;25.91;101455.88;5047516;28;20075;-21
2021/03/29 10:14:16;;;;;;;5.80;2.78;;;;;;;18.70;25.90;101450.09;5047652;28;20036;-22
2021/03/29 10:16:46;;;;;;;11.23;2.85;;;;;;;19.30;24.46;101448.00;5047590;28;20036;-22
2021/03/29 10:19:16;;;;;;;5.85;2.97;;;;;;;19.86;25.99;101446.28;5047237;28;20036;-22
2021/03/29 10:22:00;;;;;;;4.95;2.50;;;;;;;20.43;23.86;101439.75;5047451;28;20041;-22
2021/03/29 10:24:26;;;;;;;5.68;2.40;;;;;;;20.57;24.18;101435.59;5047486;28;20037;-22
2021/03/29 10:26:58;;;;;;;5.25;2.45;;;;;;;19.50;23.50;101418.59;5047079;28;20029;-22
2021/03/29 10:29:38;;;;;;;5.40;2.33;;;;;;;19.78;27.22;101433.16;5047311;28;20048;-23
2021/03/29 10:32:20;;;;;;;4.45;2.20;;;;;;;19.17;27.65;101427.50;5047338;28;20059;-22
2021/03/29 10:34:46;;;;;;;4.32;1.73;;;;;;;20.01;23.31;101435.66;5047208;28;20108;-22
2021/03/29 10:37:26;;;;;;;4.22;1.70;;;;;;;20.08;24.54;101427.34;5046895;28;20424;-22
2021/03/29 10:39:53;;;;;;;3.88;1.85;;;;;;;20.78;22.16;101425.00;5046981;28;20025;-22
2021/03/29 10:42:19;;;;;;;5.10;1.90;;;;;;;20.43;24.94;101415.34;5047057;28;20428;-22
2021/03/29 10:44:45;;;;;;;3.90;1.45;;;;;;;20.52;22.75;101404.91;5047090;28;20025;-23
2021/03/29 10:47:11;;;;;;;4.88;1.65;;;;;;;20.40;23.26;101391.50;5046932;28;20405;-22
2021/03/29 10:49:38;;;;;;;3.13;1.50;;;;;;;21.07;22.00;101401.22;5046849;28;20497;-22
2021/03/29 10:52:04;;;;;;;3.25;1.40;;;;;;;21.74;21.53;101409.91;5046982;28;20055;-22
2021/03/29 10:54:29;;;;;;;5.05;2.15;;;;;;;21.88;22.33;101394.81;5047112;28;20413;-21
2021/03/29 10:56:55;;;;;;;5.82;1.70;;;;;;;22.20;21.54;101389.28;5047204;28;20021;-22
2021/03/29 10:59:20;;;;;;;3.40;1.73;;;;;;;21.84;21.18;101393.69;5047222;28;20033;-20
2021/03/29 11:01:46;;;;;;;4.25;1.50;;;;;;;22.03;22.86;101396.81;5047021;28;20032;-22
2021/03/29 11:04:11;;;;;;;4.55;1.67;;;;;;;22.19;23.25;101384.94;5050767;28;20112;-22
2021/03/29 11:06:37;;;;;;;5.75;1.73;;;;;;;21.72;21.62;101391.19;5050810;28;20031;-23
2021/03/29 11:09:03;;;;;;;4.47;2.03;;;;;;;21.40;21.66;101378.44;5051028;28;20079;-23
2021/03/29 11:11:28;;;;;;;3.60;1.30;;;;;;;20.73;22.05;101366.16;5050751;28;20464;-22
2021/03/29 11:13:54;;;;;;;3.80;1.73;;;;;;;20.78;22.79;101359.94;5050884;28;20029;-22
2021/03/29 11:16:21;;;;;;;4.47;1.95;;;;;;;20.32;22.45;101341.28;5050869;28;20092;-22
2021/03/29 11:18:47;;;;;;;4.38;1.70;;;;;;;21.21;21.78;101348.16;5050845;28;20480;-23
2021/03/29 11:21:12;;;;;;;3.25;1.50;;;;;;;22.14;19.69;101332.47;5050923;28;20043;-22
2021/03/29 11:23:38;;;;;;;4.55;2.30;;;;;;;21.87;20.29;101344.28;5050452;28;20032;-23
2021/03/29 11:26:03;;;;;;;4.45;1.90;;;;;;;22.26;21.82;101327.66;5050575;28;20481;-22
2021/03/29 11:28:30;;;;;;;3.65;1.50;;;;;;;22.90;20.77;101339.22;5050545;28;20037;-23
2021/03/29 11:30:56;;;;;;;3.45;1.60;;;;;;;22.92;20.37;101337.84;5050610;28;20502;-23
2021/03/29 11:33:21;;;;;;;4.30;1.70;;;;;;;22.65;20.35;101328.03;5050751;28;20088;-22
2021/03/29 11:35:47;;;;;;;3.10;1.45;;;;;;;22.55;20.19;101329.91;5050545;28;20063;-21
2021/03/29 11:38:13;;;;;;;3.78;1.63;;;;;;;22.63;19.32;101326.66;5050664;28;20067;-22